Time;durP1;ratioP1;P1;durP2;ratioP2;P2;SDS_P1;SDS_P2;PMS_P1;PMS_P2;Temp;Humidity;BMP_temperature;BMP_pressure;BME280_temperature;BME280_humidity;BME280_pressure;Samples;Min_cycle;Max_cycle;Signal;HPM_P1;HPM_P2
2021/06/17 00:00:37;;;;;;;9.10;6.70;;;24.10;99.90;;;;;;5109674;27;20863;-71
2021/06/17 00:03:04;;;;;;;7.10;6.50;;;24.10;99.90;;;;;;5114474;27;20532;-71
2021/06/17 00:05:33;;;;;;;6.20;5.40;;;24.10;99.90;;;;;;5102701;27;20552;-70
2021/06/17 00:08:01;;;;;;;12.23;6.60;;;24.10;99.90;;;;;;5110075;27;20555;-72
2021/06/17 00:10:30;;;;;;;6.80;5.97;;;24.00;99.90;;;;;;5107433;27;20445;-72
2021/06/17 00:12:59;;;;;;;5.50;5.10;;;24.10;99.90;;;;;;5114575;27;20869;-71
2021/06/17 00:15:27;;;;;;;7.03;6.27;;;24.10;99.90;;;;;;5114228;27;20533;-71
2021/06/17 00:17:55;;;;;;;6.23;5.63;;;24.10;99.90;;;;;;5113746;27;20464;-71
2021/06/17 00:20:23;;;;;;;6.20;5.07;;;24.10;99.90;;;;;;5110907;27;20444;-71
2021/06/17 00:22:51;;;;;;;21.23;5.60;;;24.20;99.90;;;;;;5113225;27;20477;-71
2021/06/17 00:25:18;;;;;;;5.60;4.87;;;24.30;99.90;;;;;;5116861;27;20572;-71
2021/06/17 00:27:45;;;;;;;8.67;5.73;;;24.30;99.90;;;;;;5115265;27;20539;-72
2021/06/17 00:30:13;;;;;;;7.73;6.20;;;24.30;99.90;;;;;;5120022;27;20947;-72
2021/06/17 00:32:41;;;;;;;6.37;5.87;;;24.30;99.90;;;;;;5118326;27;20468;-72
2021/06/17 00:35:11;;;;;;;6.43;5.90;;;24.30;99.90;;;;;;5108304;27;20969;-71
2021/06/17 00:37:39;;;;;;;5.57;5.17;;;24.30;99.90;;;;;;5109607;27;20517;-71
2021/06/17 00:40:09;;;;;;;8.67;6.40;;;24.30;99.90;;;;;;5109460;27;20964;-71
2021/06/17 00:42:37;;;;;;;5.60;5.10;;;24.30;99.90;;;;;;5115308;27;20814;-72
2021/06/17 00:45:06;;;;;;;6.40;5.17;;;24.20;99.90;;;;;;5106287;27;20496;-71
2021/06/17 00:47:33;;;;;;;6.67;6.17;;;24.20;99.90;;;;;;5106090;27;20543;-72
2021/06/17 00:50:00;;;;;;;5.60;5.10;;;24.10;99.90;;;;;;5110559;27;20444;-71
2021/06/17 00:52:30;;;;;;;6.77;5.10;;;24.10;99.90;;;;;;5111207;27;20489;-71
2021/06/17 00:54:58;;;;;;;6.70;5.30;;;24.10;99.90;;;;;;5121322;27;20456;-71
2021/06/17 00:57:26;;;;;;;6.70;5.50;;;24.00;99.90;;;;;;5111803;27;20643;-72
2021/06/17 00:59:53;;;;;;;6.13;5.53;;;23.90;99.90;;;;;;5107240;27;20893;-71
2021/06/17 01:02:20;;;;;;;6.40;5.80;;;24.00;99.90;;;;;;5112916;27;20468;-71
2021/06/17 01:04:47;;;;;;;8.20;6.53;;;24.00;99.90;;;;;;5113145;27;20483;-71
2021/06/17 01:07:21;;;;;;;6.67;6.07;;;23.90;99.90;;;;;;5116508;27;20538;-71
2021/06/17 01:10:02;;;;;;;6.23;5.63;;;23.90;99.90;;;;;;5106583;27;20796;-72
2021/06/17 01:12:38;;;;;;;6.70;6.00;;;23.90;99.90;;;;;;5117154;27;20455;-72
2021/06/17 01:15:08;;;;;;;7.67;5.17;;;23.90;99.90;;;;;;5108833;27;20567;-72
2021/06/17 01:17:40;;;;;;;8.37;6.60;;;23.90;99.90;;;;;;5103434;27;20472;-71
2021/06/17 01:20:13;;;;;;;6.40;5.90;;;23.80;99.90;;;;;;5117326;27;20955;-72
2021/06/17 01:22:50;;;;;;;12.33;6.20;;;23.80;99.90;;;;;;5105518;27;20532;-71
2021/06/17 01:25:31;;;;;;;6.70;6.03;;;23.80;99.90;;;;;;5106657;28;20487;-71
2021/06/17 01:28:12;;;;;;;11.60;6.03;;;23.80;99.90;;;;;;5110276;28;20525;-72
2021/06/17 01:30:49;;;;;;;6.57;5.33;;;23.80;99.90;;;;;;5113438;28;20458;-71
2021/06/17 01:33:18;;;;;;;6.70;5.70;;;23.80;99.90;;;;;;5116637;28;20874;-71
2021/06/17 01:35:48;;;;;;;6.93;6.30;;;23.70;99.90;;;;;;5108066;28;20575;-71
2021/06/17 01:38:19;;;;;;;7.60;5.80;;;23.70;99.90;;;;;;5111982;27;20570;-71
2021/06/17 01:40:48;;;;;;;7.20;6.50;;;23.70;99.90;;;;;;5115558;28;20452;-71
2021/06/17 01:43:17;;;;;;;6.87;6.17;;;23.60;99.90;;;;;;5116717;28;20486;-71
2021/06/17 01:45:47;;;;;;;6.10;5.50;;;23.50;99.90;;;;;;5109405;27;20599;-71
2021/06/17 01:48:14;;;;;;;6.07;5.50;;;23.50;99.90;;;;;;5109598;27;20547;-71
2021/06/17 01:50:43;;;;;;;6.73;6.13;;;23.50;99.90;;;;;;5114102;27;20441;-72
2021/06/17 01:53:12;;;;;;;6.27;5.60;;;23.50;99.90;;;;;;5117196;27;20498;-71
2021/06/17 01:55:41;;;;;;;6.97;6.30;;;23.50;99.90;;;;;;5115472;27;20568;-71
2021/06/17 01:58:11;;;;;;;7.47;6.77;;;23.50;99.90;;;;;;5112993;27;20992;-71
2021/06/17 02:00:43;;;;;;;8.43;6.13;;;23.40;99.90;;;;;;5110703;27;20475;-71
2021/06/17 02:03:11;;;;;;;8.53;6.23;;;23.50;99.90;;;;;;5120337;27;20450;-71
2021/06/17 02:05:39;;;;;;;10.17;7.00;;;23.40;99.90;;;;;;5113535;27;20482;-72
2021/06/17 02:08:08;;;;;;;9.70;6.60;;;23.30;99.90;;;;;;5111609;27;20840;-71
2021/06/17 02:10:38;;;;;;;9.13;5.77;;;23.20;99.90;;;;;;5120804;27;20432;-71
2021/06/17 02:13:06;;;;;;;6.20;5.63;;;23.10;99.90;;;;;;5115304;27;20897;-70
2021/06/17 02:15:34;;;;;;;7.13;6.47;;;23.10;99.90;;;;;;5117730;27;20500;-71
2021/06/17 02:18:04;;;;;;;6.90;6.30;;;23.00;99.90;;;;;;5109370;27;20484;-71
2021/06/17 02:20:31;;;;;;;6.20;5.60;;;23.00;99.90;;;;;;5114805;27;21083;-71
2021/06/17 02:23:03;;;;;;;6.37;5.73;;;23.10;99.90;;;;;;5116127;27;20471;-71
2021/06/17 02:25:31;;;;;;;6.10;5.50;;;23.10;99.90;;;;;;5110146;27;20503;-71
2021/06/17 02:28:02;;;;;;;6.87;6.27;;;23.00;99.90;;;;;;5113346;27;20517;-70
2021/06/17 02:30:32;;;;;;;11.00;6.53;;;23.00;99.90;;;;;;5113816;27;20525;-71
2021/06/17 02:33:04;;;;;;;7.43;6.63;;;23.00;99.90;;;;;;5113440;27;20524;-71
2021/06/17 02:35:32;;;;;;;7.70;6.90;;;23.10;99.90;;;;;;5116689;27;20479;-70
2021/06/17 02:38:03;;;;;;;10.17;6.10;;;23.10;99.90;;;;;;5117611;27;20507;-71
2021/06/17 02:40:33;;;;;;;7.50;6.80;;;23.00;99.90;;;;;;5116163;27;20501;-71
2021/06/17 02:43:04;;;;;;;7.57;6.80;;;22.90;99.90;;;;;;5115391;27;20467;-71
2021/06/17 02:45:32;;;;;;;9.00;6.50;;;22.90;99.90;;;;;;5118255;27;20474;-70
2021/06/17 02:47:59;;;;;;;7.83;7.03;;;22.90;99.90;;;;;;5117535;27;20448;-71
2021/06/17 02:50:28;;;;;;;8.20;7.40;;;22.90;99.90;;;;;;5118241;27;20578;-71
2021/06/17 02:52:55;;;;;;;6.33;5.73;;;22.80;99.90;;;;;;5117271;27;20449;-69
2021/06/17 02:55:22;;;;;;;8.73;7.83;;;22.70;99.90;;;;;;5113689;27;20983;-70
2021/06/17 02:58:00;;;;;;;6.40;5.73;;;22.70;99.90;;;;;;5113363;27;20922;-71
2021/06/17 03:00:30;;;;;;;6.33;5.80;;;22.70;99.90;;;;;;5113283;27;20531;-71
2021/06/17 03:03:07;;;;;;;14.60;6.43;;;22.60;99.90;;;;;;5116215;27;20799;-71
2021/06/17 03:05:40;;;;;;;8.83;6.30;;;22.50;99.90;;;;;;5111867;27;21172;-71
2021/06/17 03:08:17;;;;;;;7.10;5.87;;;22.50;99.90;;;;;;5116134;27;20904;-71
2021/06/17 03:10:45;;;;;;;10.00;6.77;;;22.40;99.90;;;;;;5112617;27;20555;-71
2021/06/17 03:13:13;;;;;;;7.90;5.50;;;22.40;99.90;;;;;;5111411;27;20984;-71
2021/06/17 03:15:44;;;;;;;7.37;6.57;;;22.50;99.90;;;;;;5118201;27;20563;-71
2021/06/17 03:18:13;;;;;;;7.30;6.60;;;22.50;99.90;;;;;;5115164;27;20555;-71
2021/06/17 03:20:43;;;;;;;7.50;6.80;;;22.50;99.90;;;;;;5113224;27;20529;-70
2021/06/17 03:23:15;;;;;;;7.17;6.50;;;22.40;99.90;;;;;;5108593;27;20679;-70
2021/06/17 03:25:43;;;;;;;7.73;6.93;;;22.40;99.90;;;;;;5106332;27;20485;-70
2021/06/17 03:28:13;;;;;;;7.47;6.33;;;22.30;99.90;;;;;;5105498;27;20546;-70
2021/06/17 03:30:46;;;;;;;7.37;6.40;;;22.20;99.90;;;;;;5113417;27;20508;-71
2021/06/17 03:33:14;;;;;;;7.90;6.80;;;22.30;99.90;;;;;;5115643;27;20546;-70
2021/06/17 03:35:43;;;;;;;7.47;6.70;;;22.30;99.90;;;;;;5107920;27;20484;-68
2021/06/17 03:38:11;;;;;;;6.83;6.13;;;22.30;99.90;;;;;;5113343;27;20555;-71
2021/06/17 03:40:39;;;;;;;9.63;7.90;;;22.40;99.90;;;;;;5115981;27;20547;-72
2021/06/17 03:43:07;;;;;;;7.20;6.57;;;22.50;99.90;;;;;;5115335;27;20464;-72
2021/06/17 03:45:35;;;;;;;10.03;6.87;;;22.50;99.90;;;;;;5104589;27;20502;-71
2021/06/17 03:48:02;;;;;;;8.27;5.70;;;22.50;99.90;;;;;;5115611;27;20894;-71
2021/06/17 03:50:30;;;;;;;12.13;7.73;;;22.50;99.90;;;;;;5111939;27;20922;-72
2021/06/17 03:53:00;;;;;;;7.30;6.60;;;22.50;99.90;;;;;;5108113;27;20446;-71
2021/06/17 03:55:28;;;;;;;8.93;7.23;;;22.50;99.90;;;;;;5108916;27;20572;-71
2021/06/17 03:57:57;;;;;;;10.67;6.80;;;22.60;99.90;;;;;;5113117;27;20491;-72
2021/06/17 04:00:25;;;;;;;7.80;7.00;;;22.50;99.90;;;;;;5103868;27;20460;-71
2021/06/17 04:02:54;;;;;;;21.47;8.20;;;22.40;99.90;;;;;;5113737;27;20488;-69
2021/06/17 04:05:23;;;;;;;10.60;7.40;;;22.50;99.90;;;;;;5107361;27;20468;-69
2021/06/17 04:07:56;;;;;;;8.13;7.00;;;22.70;99.90;;;;;;5109816;27;21186;-69
2021/06/17 04:10:25;;;;;;;7.23;6.53;;;22.80;99.90;;;;;;5109989;27;20457;-69
2021/06/17 04:12:55;;;;;;;7.50;6.80;;;22.90;99.90;;;;;;5103475;27;20460;-68
2021/06/17 04:15:23;;;;;;;11.47;6.37;;;22.90;99.90;;;;;;5109593;27;20514;-69
2021/06/17 04:17:53;;;;;;;6.57;5.77;;;23.00;99.90;;;;;;5104045;27;20526;-69
2021/06/17 04:20:25;;;;;;;14.53;7.27;;;23.10;99.90;;;;;;5113902;27;20475;-70
2021/06/17 04:22:54;;;;;;;8.80;6.90;;;23.10;99.90;;;;;;5111198;27;20972;-70
2021/06/17 04:25:24;;;;;;;7.67;6.57;;;23.10;99.90;;;;;;5104346;27;20484;-70
2021/06/17 04:28:00;;;;;;;15.20;6.70;;;23.20;99.90;;;;;;5110340;27;20440;-69
2021/06/17 04:30:28;;;;;;;7.60;6.50;;;23.30;99.90;;;;;;5109722;27;20455;-70
2021/06/17 04:32:57;;;;;;;7.17;6.10;;;23.40;99.90;;;;;;5107243;27;20935;-71
2021/06/17 04:35:25;;;;;;;13.40;6.40;;;23.50;99.90;;;;;;5112361;27;20527;-70
2021/06/17 04:37:53;;;;;;;7.67;6.10;;;23.50;99.90;;;;;;5112770;27;21095;-70
2021/06/17 04:40:25;;;;;;;8.20;5.90;;;23.50;99.90;;;;;;5112898;27;20457;-71
2021/06/17 04:42:57;;;;;;;7.83;7.10;;;23.50;99.90;;;;;;5107942;27;20471;-70
2021/06/17 04:45:27;;;;;;;12.03;7.43;;;23.60;99.90;;;;;;5111201;27;20641;-71
2021/06/17 04:47:57;;;;;;;16.43;7.63;;;23.70;99.90;;;;;;5112306;27;20455;-71
2021/06/17 04:50:24;;;;;;;6.27;5.67;;;23.80;99.90;;;;;;5111530;27;20476;-70
2021/06/17 04:53:10;;;;;;;9.43;6.40;;;23.90;99.90;;;;;;5117754;27;20445;-70
2021/06/17 04:55:42;;;;;;;11.20;7.10;;;24.10;99.90;;;;;;5109168;27;20476;-70
2021/06/17 04:58:11;;;;;;;8.13;5.67;;;24.30;99.90;;;;;;5118523;27;20484;-71
2021/06/17 05:00:38;;;;;;;8.00;6.40;;;24.30;99.90;;;;;;5109153;27;20451;-71
2021/06/17 05:03:05;;;;;;;13.53;6.20;;;24.50;99.90;;;;;;5098349;27;20464;-71
2021/06/17 05:05:32;;;;;;;8.03;6.10;;;24.60;99.90;;;;;;5107283;27;20920;-69
2021/06/17 05:11:01;;;;;;;11.40;6.70;;;24.80;99.90;;;;;;5031800;28;20518;-71
2021/06/17 05:13:30;;;;;;;11.13;7.70;;;24.90;99.90;;;;;;5093292;27;20508;-72
2021/06/17 05:15:59;;;;;;;12.50;6.67;;;25.00;99.90;;;;;;5109184;27;20563;-72
2021/06/17 05:18:27;;;;;;;8.27;5.80;;;25.10;99.90;;;;;;5111935;27;20483;-72
2021/06/17 05:20:56;;;;;;;11.50;6.67;;;25.30;99.90;;;;;;5106511;27;20956;-72
2021/06/17 05:23:24;;;;;;;6.10;5.40;;;25.70;99.90;;;;;;5113552;27;20484;-72
2021/06/17 05:25:53;;;;;;;10.60;5.33;;;26.00;99.90;;;;;;5113181;27;20488;-71
2021/06/17 05:28:22;;;;;;;6.07;5.47;;;26.40;99.90;;;;;;5113979;27;20548;-72
2021/06/17 05:30:52;;;;;;;6.90;4.77;;;26.80;99.90;;;;;;5116855;28;20488;-71
2021/06/17 05:33:19;;;;;;;49.03;17.00;;;27.20;99.90;;;;;;5106517;28;20899;-72
2021/06/17 05:35:47;;;;;;;60.53;13.07;;;27.70;99.90;;;;;;5111899;28;20644;-71
2021/06/17 05:38:16;;;;;;;15.90;7.97;;;28.10;99.90;;;;;;5113989;28;20475;-70
2021/06/17 05:40:43;;;;;;;5.90;5.30;;;28.00;99.90;;;;;;5113169;28;20444;-71
2021/06/17 05:43:10;;;;;;;15.10;7.10;;;28.20;99.90;;;;;;5117696;27;20479;-72
2021/06/17 05:45:37;;;;;;;13.30;4.90;;;28.60;99.90;;;;;;5111844;27;20507;-72
2021/06/17 05:48:06;;;;;;;5.70;4.93;;;29.30;99.90;;;;;;5120372;28;20448;-70
2021/06/17 05:50:33;;;;;;;7.03;5.63;;;29.80;99.90;;;;;;5114956;28;20536;-72
2021/06/17 05:53:00;;;;;;;22.83;5.23;;;30.20;99.90;;;;;;5091281;27;20572;-71
2021/06/17 05:55:27;;;;;;;9.17;5.10;;;30.40;99.90;;;;;;5108857;28;20590;-72
2021/06/17 05:57:54;;;;;;;14.00;6.10;;;30.80;99.90;;;;;;5106180;27;20639;-70
2021/06/17 06:00:21;;;;;;;10.50;5.20;;;31.00;99.90;;;;;;5112950;27;25177;-70
2021/06/17 06:02:48;;;;;;;7.80;4.77;;;31.20;99.90;;;;;;5108845;28;20495;-72
2021/06/17 06:05:17;;;;;;;9.30;4.63;;;31.20;99.90;;;;;;5113347;27;20570;-70
2021/06/17 06:07:44;;;;;;;5.03;4.23;;;31.40;99.90;;;;;;5106844;27;20513;-72
2021/06/17 06:10:13;;;;;;;7.43;4.50;;;31.20;99.90;;;;;;5103357;27;20843;-72
2021/06/17 06:12:40;;;;;;;8.20;5.17;;;31.40;99.90;;;;;;5103113;28;21088;-70
2021/06/17 06:15:09;;;;;;;13.53;4.97;;;31.60;99.90;;;;;;5114079;27;20854;-71
2021/06/17 06:17:36;;;;;;;8.10;4.10;;;31.50;99.90;;;;;;5117377;27;20551;-70
2021/06/17 06:20:04;;;;;;;4.97;3.83;;;31.50;99.90;;;;;;5120954;27;20535;-72
2021/06/17 06:22:33;;;;;;;15.57;5.60;;;31.70;99.90;;;;;;5117390;28;20490;-71
2021/06/17 06:25:00;;;;;;;6.00;4.60;;;32.10;99.90;;;;;;5103351;28;20470;-71
2021/06/17 06:27:27;;;;;;;4.97;4.47;;;32.30;99.90;;;;;;5116492;28;20572;-72
2021/06/17 06:29:54;;;;;;;7.00;4.30;;;32.10;99.90;;;;;;5115878;28;20484;-70
2021/06/17 06:32:21;;;;;;;9.20;4.00;;;32.60;99.90;;;;;;5107929;27;20461;-71
2021/06/17 06:34:48;;;;;;;4.80;4.20;;;32.80;99.90;;;;;;5115842;27;20709;-70
2021/06/17 06:37:15;;;;;;;17.17;4.77;;;33.20;99.90;;;;;;5110224;27;20543;-71
2021/06/17 06:39:43;;;;;;;4.87;4.27;;;33.10;99.80;;;;;;5110097;27;20512;-68
2021/06/17 06:42:11;;;;;;;8.03;4.47;;;33.50;98.50;;;;;;5108663;27;21268;-69
2021/06/17 06:44:37;;;;;;;5.97;4.17;;;33.60;98.50;;;;;;5111168;27;20535;-70
2021/06/17 06:47:05;;;;;;;4.43;4.00;;;33.00;98.00;;;;;;5109347;27;21096;-70
2021/06/17 06:49:32;;;;;;;5.03;4.63;;;33.20;96.90;;;;;;5114160;27;20504;-69
2021/06/17 06:51:59;;;;;;;6.60;4.13;;;33.50;97.20;;;;;;5115325;27;20471;-71
2021/06/17 06:54:26;;;;;;;4.70;4.40;;;33.80;96.20;;;;;;5116109;27;20458;-69
2021/06/17 06:56:54;;;;;;;4.27;3.80;;;34.30;96.40;;;;;;5109278;27;20472;-71
2021/06/17 06:59:21;;;;;;;7.33;5.10;;;34.40;94.60;;;;;;5114799;27;20511;-71
2021/06/17 07:01:49;;;;;;;10.87;4.50;;;34.40;95.00;;;;;;5113844;27;20844;-70
2021/06/17 07:04:16;;;;;;;7.80;4.17;;;34.60;93.70;;;;;;5112055;27;20489;-70
2021/06/17 07:06:43;;;;;;;5.33;4.00;;;34.70;93.90;;;;;;5110656;27;20606;-72
2021/06/17 07:09:10;;;;;;;4.83;4.17;;;35.00;94.10;;;;;;5118859;27;20440;-71
2021/06/17 07:11:37;;;;;;;9.30;4.67;;;35.30;91.50;;;;;;5113916;27;20471;-71
2021/06/17 07:14:07;;;;;;;4.13;3.73;;;35.60;90.90;;;;;;5111485;27;20447;-71
2021/06/17 07:16:34;;;;;;;11.80;4.70;;;36.00;90.00;;;;;;5109213;27;20609;-71
2021/06/17 07:19:02;;;;;;;5.97;4.37;;;35.60;87.20;;;;;;5108377;27;20991;-71
2021/06/17 07:21:30;;;;;;;17.60;3.80;;;35.70;89.40;;;;;;5110298;27;20440;-70
2021/06/17 07:23:57;;;;;;;6.13;4.50;;;36.20;85.10;;;;;;5108412;27;20448;-70
2021/06/17 07:26:27;;;;;;;3.83;3.53;;;35.70;89.40;;;;;;5110809;27;20487;-70
2021/06/17 07:28:54;;;;;;;6.63;4.80;;;35.60;87.80;;;;;;5108344;27;20534;-71
2021/06/17 07:31:22;;;;;;;7.50;3.93;;;35.60;86.70;;;;;;5106765;27;20755;-71
2021/06/17 07:33:50;;;;;;;8.30;4.50;;;35.50;86.60;;;;;;5116318;27;20832;-71
2021/06/17 07:36:17;;;;;;;6.60;4.47;;;35.60;85.40;;;;;;5107485;27;20472;-68
2021/06/17 07:38:45;;;;;;;13.73;5.03;;;35.60;86.30;;;;;;5116720;27;21433;-71
2021/06/17 07:41:12;;;;;;;4.20;3.63;;;35.80;87.00;;;;;;5114363;27;20781;-69
2021/06/17 07:43:39;;;;;;;14.43;4.57;;;36.30;82.80;;;;;;5108653;27;20479;-71
2021/06/17 07:46:06;;;;;;;5.17;3.30;;;36.70;87.10;;;;;;5112964;27;21252;-71
2021/06/17 07:48:36;;;;;;;4.40;4.10;;;37.20;83.20;;;;;;5118304;27;20877;-71
2021/06/17 07:51:03;;;;;;;16.23;3.90;;;37.30;80.40;;;;;;5115825;27;20508;-70
2021/06/17 07:53:30;;;;;;;7.50;4.67;;;37.10;80.70;;;;;;5112429;27;20541;-70
2021/06/17 07:55:57;;;;;;;4.90;3.87;;;37.00;80.80;;;;;;5112876;27;20491;-71
2021/06/17 07:58:24;;;;;;;4.57;4.17;;;36.80;76.60;;;;;;5104744;27;20472;-71
2021/06/17 08:00:51;;;;;;;6.53;4.60;;;36.50;77.20;;;;;;5110767;27;20456;-71
2021/06/17 08:03:18;;;;;;;8.07;3.93;;;35.80;79.80;;;;;;5115183;27;20533;-71
2021/06/17 08:05:46;;;;;;;5.80;4.67;;;36.30;76.90;;;;;;5119716;27;20572;-71
2021/06/17 08:08:13;;;;;;;4.73;4.07;;;36.30;72.60;;;;;;5121164;27;20472;-71
2021/06/17 08:10:41;;;;;;;4.60;4.03;;;35.80;76.60;;;;;;5115621;27;20457;-71
2021/06/17 08:13:07;;;;;;;4.47;3.80;;;36.00;76.20;;;;;;5122820;27;20448;-71
2021/06/17 08:15:35;;;;;;;4.00;3.53;;;36.70;73.20;;;;;;5114398;27;20587;-71
2021/06/17 08:18:02;;;;;;;5.00;4.60;;;37.40;72.10;;;;;;5118436;27;20609;-71
2021/06/17 08:20:28;;;;;;;5.43;4.20;;;37.70;75.80;;;;;;5118391;27;20542;-70
2021/06/17 08:22:57;;;;;;;5.03;3.47;;;38.50;72.10;;;;;;5117771;27;20449;-71
2021/06/17 08:25:24;;;;;;;3.90;3.23;;;38.60;70.00;;;;;;5117669;27;20787;-71
2021/06/17 08:27:51;;;;;;;8.13;3.90;;;38.70;66.40;;;;;;5116141;27;21032;-70
2021/06/17 08:30:20;;;;;;;11.13;4.10;;;38.50;67.50;;;;;;5119574;27;20478;-70
2021/06/17 08:32:49;;;;;;;4.10;3.80;;;39.20;67.70;;;;;;5122004;27;20448;-71
2021/06/17 08:35:16;;;;;;;4.73;4.10;;;39.20;64.80;;;;;;5118391;27;20467;-70
2021/06/17 08:37:43;;;;;;;6.83;4.27;;;39.50;65.50;;;;;;5118055;27;21062;-71
2021/06/17 08:40:12;;;;;;;7.37;4.20;;;39.90;65.00;;;;;;5124525;27;20483;-71
2021/06/17 08:42:39;;;;;;;6.43;4.10;;;40.20;62.40;;;;;;5123685;27;20476;-70
2021/06/17 08:45:10;;;;;;;11.23;4.20;;;40.10;60.00;;;;;;5121080;27;20905;-70
2021/06/17 08:47:38;;;;;;;10.80;3.67;;;39.70;61.60;;;;;;5123266;27;20824;-70
2021/06/17 08:50:07;;;;;;;10.00;3.93;;;39.60;65.20;;;;;;5120710;27;20940;-71
2021/06/17 08:52:39;;;;;;;4.27;3.87;;;40.20;61.00;;;;;;5117867;27;20521;-71
2021/06/17 08:55:17;;;;;;;5.00;3.80;;;40.60;55.70;;;;;;5117523;27;20483;-71
2021/06/17 08:57:47;;;;;;;4.70;4.30;;;40.70;56.40;;;;;;5118136;27;20495;-71
2021/06/17 09:00:36;;;;;;;5.90;3.27;;;40.70;54.90;;;;;;5125347;27;20559;-71
2021/06/17 09:03:05;;;;;;;7.60;3.37;;;41.10;55.00;;;;;;5118818;27;20433;-71
2021/06/17 09:05:34;;;;;;;4.90;3.20;;;41.30;54.10;;;;;;5116551;27;20499;-71
2021/06/17 09:08:02;;;;;;;3.33;3.03;;;41.10;52.70;;;;;;5118858;27;20555;-71
2021/06/17 09:10:31;;;;;;;3.80;2.80;;;40.40;51.60;;;;;;5118665;27;20856;-71
2021/06/17 09:12:59;;;;;;;4.17;2.90;;;40.40;50.00;;;;;;5121266;27;20929;-70
2021/06/17 09:15:36;;;;;;;4.27;3.37;;;40.00;50.10;;;;;;5120907;27;20567;-70
2021/06/17 09:18:22;;;;;;;3.40;2.93;;;40.20;49.50;;;;;;5124714;27;20539;-70
2021/06/17 09:20:58;;;;;;;3.20;2.90;;;40.70;51.10;;;;;;5120095;27;20498;-70
2021/06/17 09:23:28;;;;;;;7.63;2.93;;;40.30;49.80;;;;;;5117191;27;20890;-71
2021/06/17 09:25:58;;;;;;;9.33;3.10;;;40.90;50.20;;;;;;5111933;28;20559;-71
2021/06/17 09:28:26;;;;;;;5.10;3.43;;;40.60;49.40;;;;;;5120080;27;20498;-71
2021/06/17 09:30:54;;;;;;;3.30;3.10;;;40.70;50.30;;;;;;5114358;28;20492;-70
2021/06/17 09:33:25;;;;;;;10.97;3.80;;;40.90;48.90;;;;;;5123944;28;20516;-71
2021/06/17 09:35:54;;;;;;;5.73;2.97;;;41.10;50.30;;;;;;5119153;28;20475;-71
2021/06/17 09:38:22;;;;;;;4.07;3.07;;;41.40;48.60;;;;;;5115557;28;20510;-71
2021/06/17 09:40:53;;;;;;;6.60;3.40;;;41.40;48.40;;;;;;5116711;27;20895;-70
2021/06/17 09:43:28;;;;;;;4.63;3.30;;;41.60;48.70;;;;;;5119101;28;20465;-71
2021/06/17 09:46:01;;;;;;;3.83;3.40;;;41.90;47.70;;;;;;5122676;28;20545;-71
2021/06/17 09:48:42;;;;;;;3.13;2.93;;;42.30;48.00;;;;;;5118803;28;20436;-71
2021/06/17 09:51:23;;;;;;;3.20;2.90;;;42.60;46.50;;;;;;5119602;28;20465;-71
2021/06/17 09:53:51;;;;;;;5.30;3.13;;;42.70;46.70;;;;;;5111433;28;20958;-71
2021/06/17 09:56:25;;;;;;;2.70;2.50;;;42.00;45.90;;;;;;5109028;28;20474;-72
2021/06/17 09:58:57;;;;;;;4.17;3.07;;;41.80;45.80;;;;;;5121496;28;20495;-70
2021/06/17 10:01:31;;;;;;;3.10;2.90;;;42.00;44.60;;;;;;5115909;28;20441;-71
2021/06/17 10:04:06;;;;;;;3.03;2.80;;;41.80;45.10;;;;;;5110013;27;20470;-71
2021/06/17 10:06:35;;;;;;;5.13;3.03;;;42.20;45.40;;;;;;5112079;28;20476;-73
2021/06/17 10:09:08;;;;;;;8.70;3.60;;;41.90;44.80;;;;;;5111189;27;20451;-72
2021/06/17 10:11:35;;;;;;;6.17;2.90;;;41.20;46.50;;;;;;5119263;27;20820;-71
2021/06/17 10:14:05;;;;;;;9.23;2.80;;;42.00;45.50;;;;;;5117363;27;21143;-71
2021/06/17 10:16:33;;;;;;;4.17;3.00;;;42.10;45.70;;;;;;5124667;27;20999;-71
2021/06/17 10:19:01;;;;;;;4.30;3.40;;;42.00;45.20;;;;;;5114180;27;20484;-72
2021/06/17 10:21:28;;;;;;;3.50;3.20;;;41.60;45.50;;;;;;5122823;27;20440;-70
2021/06/17 10:23:55;;;;;;;13.60;4.07;;;41.00;46.90;;;;;;5113294;27;20496;-71
2021/06/17 10:26:25;;;;;;;6.10;4.40;;;41.20;47.60;;;;;;5115594;27;20552;-71
2021/06/17 10:28:55;;;;;;;3.93;2.90;;;41.70;46.40;;;;;;5118791;27;20547;-71
2021/06/17 10:31:47;;;;;;;4.90;2.93;;;41.90;46.20;;;;;;5122267;27;20891;-71
2021/06/17 10:34:46;;;;;;;5.47;3.10;;;41.40;47.40;;;;;;5119330;27;20535;-71
2021/06/17 10:37:19;;;;;;;4.27;3.97;;;41.10;47.10;;;;;;5118219;27;20490;-71
2021/06/17 10:39:49;;;;;;;4.33;3.80;;;41.30;48.40;;;;;;5112888;27;20480;-71
2021/06/17 10:42:31;;;;;;;4.07;3.53;;;42.10;47.70;;;;;;5120686;27;20448;-72
2021/06/17 10:45:00;;;;;;;4.40;3.90;;;42.20;47.50;;;;;;5121086;27;20479;-72
2021/06/17 10:47:59;;;;;;;7.30;3.73;;;42.40;47.30;;;;;;5113909;27;20990;-71
2021/06/17 10:50:46;;;;;;;6.10;4.90;;;42.80;47.50;;;;;;5120414;27;20448;-71
2021/06/17 10:53:45;;;;;;;3.77;3.23;;;42.80;46.20;;;;;;5110887;27;20518;-72
2021/06/17 10:56:17;;;;;;;3.20;3.00;;;43.30;45.20;;;;;;5109671;27;20472;-72
2021/06/17 10:59:06;;;;;;;4.43;3.50;;;43.40;45.40;;;;;;5113373;27;20440;-70
2021/06/17 11:01:36;;;;;;;6.40;3.77;;;43.80;45.60;;;;;;5110955;27;20447;-72
2021/06/17 11:04:12;;;;;;;3.57;3.30;;;44.10;44.90;;;;;;5121318;27;20593;-72
2021/06/17 11:07:21;;;;;;;3.43;3.13;;;44.30;45.10;;;;;;5109032;27;21022;-71
2021/06/17 11:10:05;;;;;;;5.03;3.40;;;44.60;43.60;;;;;;5107954;27;20452;-71
2021/06/17 11:13:07;;;;;;;4.17;3.67;;;44.40;43.20;;;;;;5111833;27;20448;-71
2021/06/17 11:15:43;;;;;;;3.73;3.43;;;43.60;44.90;;;;;;5108408;27;20528;-71
2021/06/17 11:18:10;;;;;;;3.80;3.40;;;44.00;44.40;;;;;;5115609;27;20447;-72
2021/06/17 11:20:41;;;;;;;3.73;3.43;;;44.30;43.70;;;;;;5118903;27;20552;-72
2021/06/17 11:23:09;;;;;;;3.00;2.70;;;44.70;43.70;;;;;;5120462;27;20951;-72
2021/06/17 11:25:41;;;;;;;5.67;3.60;;;44.30;42.70;;;;;;5117276;27;20545;-71
2021/06/17 11:28:09;;;;;;;4.40;3.57;;;44.20;44.00;;;;;;5116879;27;20452;-72
2021/06/17 11:30:58;;;;;;;3.43;2.90;;;44.80;44.50;;;;;;5121955;27;20528;-71
2021/06/17 11:33:47;;;;;;;2.80;2.60;;;44.80;42.70;;;;;;5114812;27;20550;-72
2021/06/17 11:36:22;;;;;;;4.53;3.17;;;44.30;42.40;;;;;;5114804;27;20473;-72
2021/06/17 11:38:50;;;;;;;3.40;2.50;;;43.60;42.10;;;;;;5119205;27;20486;-71
2021/06/17 11:41:20;;;;;;;3.00;2.70;;;43.90;41.20;;;;;;5117851;27;20482;-72
2021/06/17 11:43:56;;;;;;;3.50;2.97;;;44.50;42.30;;;;;;5119935;27;20451;-72
2021/06/17 11:46:25;;;;;;;2.67;2.47;;;45.10;41.70;;;;;;5113889;27;20892;-72
2021/06/17 11:48:53;;;;;;;7.20;2.67;;;45.40;39.50;;;;;;5122419;27;20862;-72
2021/06/17 11:51:22;;;;;;;2.30;2.10;;;45.60;41.20;;;;;;5119981;27;20515;-71
2021/06/17 11:53:51;;;;;;;2.87;2.60;;;45.40;39.50;;;;;;5120339;27;20455;-72
2021/06/17 11:56:31;;;;;;;6.47;3.27;;;44.70;39.60;;;;;;5123131;27;20475;-72
2021/06/17 11:59:17;;;;;;;3.23;2.83;;;44.60;40.80;;;;;;5124056;27;20500;-72
2021/06/17 12:02:03;;;;;;;4.53;2.83;;;45.20;40.50;;;;;;5124664;27;20552;-72
2021/06/17 12:04:44;;;;;;;2.93;2.53;;;45.60;40.30;;;;;;5122175;27;20903;-72
2021/06/17 12:07:13;;;;;;;3.27;2.97;;;44.90;40.20;;;;;;5117518;27;20488;-72
2021/06/17 12:09:40;;;;;;;6.07;2.80;;;44.90;39.80;;;;;;5107276;27;20449;-72
2021/06/17 12:12:17;;;;;;;4.83;3.57;;;45.20;40.50;;;;;;5119914;27;20991;-72
2021/06/17 12:14:45;;;;;;;3.33;3.10;;;45.10;40.80;;;;;;5108527;27;25124;-71
2021/06/17 12:17:13;;;;;;;3.17;2.20;;;45.40;40.70;;;;;;5109449;27;20621;-72
2021/06/17 12:19:40;;;;;;;3.87;2.77;;;45.90;40.90;;;;;;5118696;27;20467;-72
2021/06/17 12:22:08;;;;;;;8.73;3.67;;;45.90;39.40;;;;;;5114059;27;20456;-72
2021/06/17 12:24:38;;;;;;;5.67;3.03;;;45.60;39.90;;;;;;5116113;27;20815;-72
2021/06/17 12:27:06;;;;;;;2.63;2.43;;;45.80;38.50;;;;;;5111271;27;20527;-72
2021/06/17 12:29:33;;;;;;;3.40;3.10;;;46.10;38.30;;;;;;5109624;27;25225;-71
2021/06/17 12:32:01;;;;;;;3.70;2.47;;;46.00;38.00;;;;;;5111939;27;21104;-71
2021/06/17 12:34:40;;;;;;;4.50;2.90;;;44.80;38.40;;;;;;5104557;27;20452;-71
2021/06/17 12:37:09;;;;;;;3.60;3.30;;;44.60;39.20;;;;;;5114401;27;20480;-72
2021/06/17 12:39:38;;;;;;;3.50;2.90;;;44.60;40.00;;;;;;5113361;27;20492;-71
2021/06/17 12:42:14;;;;;;;5.37;3.07;;;44.60;39.40;;;;;;5119496;27;20440;-72
2021/06/17 12:44:44;;;;;;;2.90;2.70;;;45.00;39.10;;;;;;5124752;27;20451;-71
2021/06/17 12:47:15;;;;;;;5.67;3.33;;;44.20;37.90;;;;;;5121281;27;20572;-71
2021/06/17 12:52:28;;;;;;;3.40;2.67;;;43.90;38.80;;;;;;5114607;27;20431;-71
2021/06/17 12:54:57;;;;;;;3.83;3.27;;;43.20;40.00;;;;;;5115015;27;20862;-71
2021/06/17 12:57:26;;;;;;;5.00;2.63;;;43.90;38.90;;;;;;5116694;27;20552;-72
2021/06/17 12:59:56;;;;;;;6.67;3.50;;;43.40;38.70;;;;;;5108785;27;20512;-70
2021/06/17 13:02:44;;;;;;;3.47;3.17;;;43.10;39.90;;;;;;5103406;27;20441;-71
2021/06/17 13:05:14;;;;;;;6.10;3.20;;;42.20;41.00;;;;;;5111342;27;20487;-71
2021/06/17 13:07:58;;;;;;;3.50;3.20;;;42.50;40.00;;;;;;5109198;27;20460;-71